Allegheny, Pennsylvania
Current Conditions -  °F | °C
As of 10:53 PM on Sunday 23 Nov 2014 (Local Time) from KAGC Reporting Station
Light Rain Light Rain  
Wind Chill: 12°   Ceiling: 8000
Heat Index: 12°   Visibility: 7mi
Dew Point:   Wind: 15mph
Humidity: 80%   Direction: 150°SSE
Pressure: 29.57"   Gusts: 23mph
Location:  40.4725°N, 80.0082°W
Report Text: KAGC 240353Z 15013G20KT 7SM -RA BKN080 OVC095 12/09 A2957 RMK AO2 SLP017 P0006 T01220089
Loading
Personal Weather Stations






























Interactive Weather Map New forecast layout! Learn more

10-Day Weather Forecast

Advertisements
Track Severe Weather on mobile